createdAt,value
2018-01-24T00:02:28.088Z,79.68
2018-01-24T00:04:56.435Z,76.13
2018-01-24T00:07:24.808Z,73.66
2018-01-24T00:09:53.162Z,75.81
2018-01-24T00:12:21.532Z,74.24
2018-01-24T00:14:49.887Z,74.28
2018-01-24T00:17:18.271Z,75.39
2018-01-24T00:19:46.638Z,78.88
2018-01-24T00:22:14.983Z,75.07
2018-01-24T00:24:43.331Z,75.96
2018-01-24T00:27:11.683Z,73.99
2018-01-24T00:29:40.047Z,77.02
2018-01-24T00:32:08.390Z,73.77
2018-01-24T00:34:36.738Z,76.65
2018-01-24T00:37:05.090Z,76.42
2018-01-24T00:39:33.470Z,73.64
2018-01-24T00:42:01.826Z,74.95
2018-01-24T00:44:30.194Z,76.74
2018-01-24T00:46:58.535Z,73.07
2018-01-24T00:49:26.879Z,70.11
2018-01-24T00:51:55.235Z,74.98
2018-01-24T00:54:23.616Z,65.35
2018-01-24T00:56:51.958Z,66.01
2018-01-24T00:59:20.330Z,63.75
2018-01-24T01:01:48.702Z,61.60
2018-01-24T01:04:17.039Z,58.27
2018-01-24T01:06:45.410Z,56.24
2018-01-24T01:09:13.792Z,62.39
2018-01-24T01:11:42.134Z,66.81
2018-01-24T01:14:11.307Z,67.48
2018-01-24T01:16:39.664Z,63.89
2018-01-24T01:19:08.042Z,65.03
2018-01-24T01:21:36.394Z,58.37
2018-01-24T01:24:04.782Z,71.59
2018-01-24T01:26:33.146Z,69.45
2018-01-24T01:29:02.427Z,68.58
2018-01-24T01:31:30.762Z,66.79
2018-01-24T01:33:59.106Z,68.92
2018-01-24T01:36:27.453Z,67.40
2018-01-24T01:38:55.810Z,69.90
2018-01-24T01:41:24.206Z,66.73
2018-01-24T01:43:52.562Z,71.29
2018-01-24T01:46:20.914Z,70.16
2018-01-24T01:48:49.255Z,70.21
2018-01-24T01:51:17.603Z,71.43
2018-01-24T01:53:45.983Z,69.21
2018-01-24T01:56:14.324Z,71.39
2018-01-24T01:58:42.669Z,71.29
2018-01-24T02:01:11.038Z,72.08
2018-01-24T02:03:39.378Z,69.63
2018-01-24T02:06:07.722Z,69.01
2018-01-24T02:08:36.070Z,73.46
2018-01-24T02:11:04.448Z,72.59
2018-01-24T02:13:32.797Z,73.55
2018-01-24T02:16:21.550Z,72.73
2018-01-24T02:18:49.906Z,68.85
2018-01-24T02:21:18.250Z,69.88
2018-01-24T02:23:46.631Z,73.57
2018-01-24T02:26:14.978Z,75.66
2018-01-24T02:28:43.318Z,74.61
2018-01-24T02:31:11.666Z,77.28
2018-01-24T02:33:40.010Z,75.17
2018-01-24T02:36:08.386Z,75.92
2018-01-24T02:38:48.391Z,71.69
2018-01-24T02:41:16.758Z,70.92
2018-01-24T02:43:45.101Z,73.30
2018-01-24T02:46:13.473Z,74.09
2018-01-24T02:48:41.812Z,75.32
2018-01-24T02:51:10.186Z,74.00
2018-01-24T02:53:38.538Z,73.75
2018-01-24T02:56:06.919Z,73.33
2018-01-24T02:58:35.311Z,68.60
2018-01-24T03:01:03.642Z,67.99
2018-01-24T03:03:31.991Z,69.35
2018-01-24T03:06:00.354Z,69.79
2018-01-24T03:08:28.709Z,73.58
2018-01-24T03:10:57.065Z,70.99
2018-01-24T03:13:25.410Z,69.35
2018-01-24T03:15:53.754Z,69.19
2018-01-24T03:18:22.137Z,68.81
2018-01-24T03:20:50.480Z,70.51
2018-01-24T03:23:18.831Z,72.16
2018-01-24T03:25:47.163Z,71.13
2018-01-24T03:28:15.518Z,69.25
2018-01-24T03:30:43.887Z,67.10
2018-01-24T03:33:12.251Z,68.76
2018-01-24T03:35:40.618Z,68.17
2018-01-24T03:38:08.958Z,66.17
2018-01-24T03:40:37.306Z,66.96
2018-01-24T03:43:05.650Z,66.77
2018-01-24T03:45:34.026Z,70.19
2018-01-24T03:48:02.390Z,68.53
2018-01-24T03:50:30.776Z,68.67
2018-01-24T03:52:59.142Z,69.05
2018-01-24T03:55:27.494Z,65.51
2018-01-24T03:57:55.838Z,69.58
2018-01-24T04:00:38.919Z,69.46
2018-01-24T04:03:07.263Z,69.92
2018-01-24T04:05:35.610Z,74.25
2018-01-24T04:08:03.988Z,77.24
2018-01-24T04:10:32.331Z,72.57
2018-01-24T04:13:00.676Z,69.86
2018-01-24T04:15:29.059Z,73.41
2018-01-24T04:17:57.419Z,73.70
2018-01-24T04:20:25.914Z,71.03
2018-01-24T04:22:54.254Z,73.70
2018-01-24T04:25:22.602Z,75.59
2018-01-24T04:27:50.982Z,75.54
2018-01-24T04:30:19.365Z,79.88
2018-01-24T04:32:47.740Z,75.22
2018-01-24T04:35:16.123Z,75.91
2018-01-24T04:37:44.472Z,74.69
2018-01-24T04:40:12.814Z,75.97
2018-01-24T04:42:41.174Z,75.77
2018-01-24T04:45:09.550Z,78.46
2018-01-24T04:47:37.895Z,78.91
2018-01-24T04:50:06.242Z,73.14
2018-01-24T04:52:34.595Z,75.92
2018-01-24T04:55:02.958Z,76.03
2018-01-24T04:57:31.352Z,75.45
2018-01-24T04:59:59.688Z,74.75
2018-01-24T05:02:28.032Z,74.76
2018-01-24T05:04:56.374Z,75.69
2018-01-24T05:07:24.749Z,77.06
2018-01-24T05:09:53.090Z,77.48
2018-01-24T05:12:21.434Z,78.84
2018-01-24T05:14:49.788Z,72.83
2018-01-24T05:17:18.142Z,74.56
2018-01-24T05:19:46.514Z,76.57
2018-01-24T05:22:14.854Z,76.82
2018-01-24T05:24:43.199Z,77.30
2018-01-24T05:27:11.538Z,74.90
2018-01-24T05:29:39.912Z,74.73
2018-01-24T05:32:08.251Z,75.12
2018-01-24T05:34:36.614Z,75.03
2018-01-24T05:37:05.003Z,73.54
2018-01-24T05:39:33.363Z,73.92
2018-01-24T05:42:01.700Z,72.31
2018-01-24T05:44:30.042Z,73.75
2018-01-24T05:46:58.386Z,75.37
2018-01-24T05:49:26.758Z,75.27
2018-01-24T05:51:55.098Z,76.95
2018-01-24T05:54:23.480Z,74.90
2018-01-24T05:56:51.834Z,73.17
2018-01-24T05:59:20.311Z,73.07
2018-01-24T06:01:48.651Z,73.00
2018-01-24T06:04:17.002Z,71.85
2018-01-24T06:06:45.347Z,72.73
2018-01-24T06:09:13.715Z,74.98
2018-01-24T06:11:42.110Z,75.28
2018-01-24T06:14:10.450Z,75.30
2018-01-24T06:16:38.791Z,73.77
2018-01-24T06:19:07.163Z,76.55
2018-01-24T06:21:35.516Z,71.75
2018-01-24T06:24:03.915Z,74.16
2018-01-24T06:26:32.251Z,72.60
2018-01-24T06:29:00.630Z,75.89
2018-01-24T06:31:28.980Z,76.18
2018-01-24T06:33:57.357Z,76.78
2018-01-24T06:36:25.700Z,76.70
2018-01-24T06:38:54.047Z,75.84
2018-01-24T06:41:22.397Z,78.34
2018-01-24T06:43:50.758Z,76.76
2018-01-24T06:46:19.126Z,78.86
2018-01-24T06:48:47.471Z,75.40
2018-01-24T06:51:15.815Z,76.56
2018-01-24T06:53:44.158Z,77.09
2018-01-24T06:56:12.503Z,77.10
2018-01-24T06:58:40.893Z,77.61
2018-01-24T07:01:09.240Z,79.42
2018-01-24T07:03:37.621Z,77.57
2018-01-24T07:06:05.993Z,77.26
2018-01-24T07:08:34.383Z,75.65
2018-01-24T07:11:02.750Z,74.78
2018-01-24T07:13:42.847Z,74.47
2018-01-24T07:16:11.220Z,76.76
2018-01-24T07:18:39.588Z,75.62
2018-01-24T07:21:07.942Z,77.38
2018-01-24T07:23:36.333Z,78.26
2018-01-24T07:26:04.671Z,75.83
2018-01-24T07:28:33.047Z,74.55
2018-01-24T07:31:02.042Z,75.55
2018-01-24T07:33:30.425Z,76.97
2018-01-24T07:35:58.772Z,76.58
2018-01-24T07:38:27.246Z,75.79
2018-01-24T07:40:55.602Z,76.35
2018-01-24T07:43:23.944Z,75.56
2018-01-24T07:45:52.287Z,75.84
2018-01-24T07:48:20.633Z,75.89
2018-01-24T07:50:49.011Z,72.89
2018-01-24T07:53:17.365Z,73.95
2018-01-24T07:55:45.710Z,77.37
2018-01-24T07:58:14.063Z,78.80
2018-01-24T08:00:42.437Z,75.67
2018-01-24T08:03:10.798Z,98.28
2018-01-24T08:05:39.165Z,79.13
2018-01-24T08:08:07.636Z,79.39
2018-01-24T08:10:36.084Z,77.38
2018-01-24T08:13:04.420Z,76.34
2018-01-24T08:15:32.769Z,75.81
2018-01-24T08:18:01.121Z,76.56
2018-01-24T08:20:29.500Z,76.71
2018-01-24T08:22:57.850Z,78.21
2018-01-24T08:25:26.213Z,79.24
2018-01-24T08:27:54.592Z,75.27
2018-01-24T08:30:22.937Z,76.23
2018-01-24T08:32:51.282Z,76.43
2018-01-24T08:35:19.631Z,76.02
2018-01-24T08:37:47.991Z,78.03
2018-01-24T08:40:16.386Z,76.20
2018-01-24T08:42:44.748Z,76.62
2018-01-24T08:45:13.127Z,75.09
2018-01-24T08:47:41.484Z,74.68
2018-01-24T08:50:09.852Z,75.30
2018-01-24T08:52:38.184Z,74.58
2018-01-24T08:55:06.547Z,76.28
2018-01-24T08:57:34.941Z,75.25
2018-01-24T09:00:20.547Z,70.85
2018-01-24T09:03:12.154Z,73.19
2018-01-24T09:06:03.598Z,74.02
2018-01-24T09:08:55.300Z,71.16
2018-01-24T09:11:47.098Z,69.68
2018-01-24T09:14:38.671Z,72.88
2018-01-24T09:17:30.219Z,72.22
2018-01-24T09:20:21.842Z,68.93
2018-01-24T09:23:07.588Z,68.56
2018-01-24T09:25:37.768Z,68.28
2018-01-24T09:28:06.422Z,68.16
2018-01-24T09:30:34.787Z,70.75
2018-01-24T09:33:03.136Z,72.69
2018-01-24T09:35:31.520Z,72.49
2018-01-24T09:38:00.177Z,70.63
2018-01-24T09:40:28.789Z,70.07
2018-01-24T09:42:57.536Z,71.50
2018-01-24T09:45:25.866Z,68.59
2018-01-24T09:47:54.216Z,67.82
2018-01-24T09:50:22.569Z,70.64
2018-01-24T09:52:50.903Z,68.76
2018-01-24T09:55:19.294Z,70.38
2018-01-24T09:57:47.662Z,69.75
2018-01-24T10:00:16.012Z,69.89
2018-01-24T10:02:44.358Z,67.64
2018-01-24T10:05:12.748Z,69.89
2018-01-24T10:07:41.085Z,66.29
2018-01-24T10:10:09.446Z,69.67
2018-01-24T10:12:37.791Z,70.92
2018-01-24T10:15:06.180Z,68.29
2018-01-24T10:17:34.539Z,69.57
2018-01-24T10:20:02.898Z,70.90
2018-01-24T10:22:31.279Z,69.76
2018-01-24T10:24:59.614Z,69.22
2018-01-24T10:27:27.962Z,69.51
2018-01-24T10:29:56.302Z,70.66
2018-01-24T10:32:24.642Z,70.87
2018-01-24T10:34:53.044Z,70.18
2018-01-24T10:37:21.411Z,73.00
2018-01-24T10:39:49.754Z,73.13
2018-01-24T10:42:18.156Z,73.53
2018-01-24T10:44:46.485Z,72.51
2018-01-24T10:47:14.831Z,71.72
2018-01-24T10:49:43.192Z,71.33
2018-01-24T10:52:11.683Z,72.71
2018-01-24T10:54:40.026Z,73.19
2018-01-24T10:57:08.362Z,69.45
2018-01-24T10:59:36.730Z,72.87
2018-01-24T11:02:05.073Z,70.74
2018-01-24T11:04:33.453Z,72.09
2018-01-24T11:07:01.809Z,70.25
2018-01-24T11:09:30.150Z,71.24
2018-01-24T11:11:58.501Z,72.86
2018-01-24T11:14:26.869Z,71.48
2018-01-24T11:16:55.220Z,70.78
2018-01-24T11:19:23.603Z,69.67
2018-01-24T11:21:51.948Z,69.53
2018-01-24T11:24:20.343Z,71.99
2018-01-24T11:26:48.682Z,71.66
2018-01-24T11:29:17.097Z,69.19
2018-01-24T11:31:45.443Z,70.30
2018-01-24T11:34:13.817Z,68.66
2018-01-24T11:36:42.153Z,68.37
2018-01-24T11:39:10.498Z,67.17
2018-01-24T11:41:38.874Z,70.68
2018-01-24T11:44:07.226Z,72.02
2018-01-24T11:46:35.610Z,71.25
2018-01-24T11:49:04.976Z,70.78
2018-01-24T11:51:33.319Z,69.88
2018-01-24T11:54:01.713Z,70.97
2018-01-24T11:56:30.335Z,69.94
2018-01-24T11:58:58.704Z,70.27
2018-01-24T12:01:27.045Z,71.64
2018-01-24T12:03:55.421Z,70.53
2018-01-24T12:06:23.766Z,71.61
2018-01-24T12:08:52.130Z,67.24
2018-01-24T12:11:20.480Z,69.38
2018-01-24T12:13:48.820Z,68.11
2018-01-24T12:16:17.195Z,69.46
2018-01-24T12:18:45.539Z,68.63
2018-01-24T12:21:13.948Z,71.27
2018-01-24T12:23:42.295Z,71.63
2018-01-24T12:26:10.654Z,71.08
2018-01-24T12:28:39.049Z,71.05
2018-01-24T12:31:07.398Z,72.73
2018-01-24T12:33:35.820Z,72.89
2018-01-24T12:36:04.147Z,71.31
2018-01-24T12:38:32.554Z,72.74
2018-01-24T12:41:00.891Z,74.36
2018-01-24T12:43:29.371Z,75.76
2018-01-24T12:45:57.847Z,74.87
2018-01-24T12:48:26.172Z,73.71
2018-01-24T12:50:54.522Z,73.61
2018-01-24T12:53:22.916Z,74.42
2018-01-24T12:55:51.255Z,75.26
2018-01-24T12:58:19.669Z,73.10
2018-01-24T13:00:48.064Z,73.91
2018-01-24T13:03:16.429Z,74.48
2018-01-24T13:05:44.782Z,73.38
2018-01-24T13:08:13.131Z,76.86
2018-01-24T13:10:41.492Z,77.32
2018-01-24T13:13:09.871Z,76.36
2018-01-24T13:15:38.222Z,78.40
2018-01-24T13:18:06.596Z,75.18
2018-01-24T13:20:34.941Z,75.23
2018-01-24T13:23:03.294Z,75.95
2018-01-24T13:25:31.651Z,75.42
2018-01-24T13:28:00.006Z,76.58
2018-01-24T13:30:28.384Z,74.30
2018-01-24T13:32:56.727Z,75.06
2018-01-24T13:35:25.118Z,76.38
2018-01-24T13:37:53.458Z,75.95
2018-01-24T13:40:21.827Z,75.86
2018-01-24T13:42:50.168Z,76.37
2018-01-24T13:45:18.549Z,75.44
2018-01-24T13:47:46.930Z,76.28
2018-01-24T13:50:15.352Z,75.51
2018-01-24T13:52:43.714Z,74.67
2018-01-24T13:55:12.082Z,74.32
2018-01-24T13:57:40.418Z,77.00
2018-01-24T14:00:08.764Z,76.42
2018-01-24T14:02:37.100Z,76.12
2018-01-24T14:05:05.574Z,77.92
2018-01-24T14:07:33.935Z,76.64
2018-01-24T14:10:02.373Z,75.62
2018-01-24T14:12:30.745Z,76.24
2018-01-24T14:14:59.136Z,76.68
2018-01-24T14:17:27.517Z,75.51
2018-01-24T14:19:55.903Z,75.02
2018-01-24T14:22:24.277Z,75.01
2018-01-24T14:24:52.664Z,74.96
2018-01-24T14:27:21.007Z,74.88
2018-01-24T14:29:49.417Z,75.39
2018-01-24T14:32:17.753Z,75.09
2018-01-24T14:34:46.134Z,74.90
2018-01-24T14:37:14.519Z,75.04
2018-01-24T14:39:42.903Z,76.13
2018-01-24T14:42:11.230Z,76.79
2018-01-24T14:44:39.581Z,77.91
2018-01-24T14:47:07.931Z,75.04
2018-01-24T14:49:36.451Z,73.10
2018-01-24T14:52:04.815Z,77.27
2018-01-24T14:54:33.523Z,77.07
2018-01-24T14:57:01.879Z,76.40
2018-01-24T14:59:30.222Z,77.49
2018-01-24T15:01:58.578Z,77.33
2018-01-24T15:04:27.032Z,76.48
2018-01-24T15:06:55.382Z,76.77
2018-01-24T15:09:23.778Z,78.39
2018-01-24T15:11:52.127Z,76.52
2018-01-24T15:14:20.474Z,75.33
2018-01-24T15:16:48.827Z,76.59
2018-01-24T15:19:17.252Z,77.07
2018-01-24T15:21:45.618Z,77.14
2018-01-24T15:24:13.991Z,74.72
2018-01-24T15:26:42.369Z,77.13
2018-01-24T15:29:10.772Z,75.00
2018-01-24T15:31:39.210Z,76.57
2018-01-24T15:34:07.558Z,76.04
2018-01-24T15:36:35.950Z,79.04
2018-01-24T15:39:04.434Z,73.75
2018-01-24T15:41:32.777Z,71.51
2018-01-24T15:44:01.135Z,72.67
2018-01-24T15:46:29.477Z,72.54
2018-01-24T15:48:57.871Z,74.58
2018-01-24T15:51:26.228Z,73.35
2018-01-24T15:53:54.599Z,72.61
2018-01-24T15:56:22.973Z,74.38
2018-01-24T15:58:51.313Z,69.73
2018-01-24T16:01:19.706Z,71.60
2018-01-24T16:03:48.040Z,72.00
2018-01-24T16:06:16.392Z,70.10
2018-01-24T16:08:44.771Z,72.48
2018-01-24T16:11:13.121Z,73.62
2018-01-24T16:13:41.474Z,72.33
2018-01-24T16:16:09.814Z,72.24
2018-01-24T16:18:38.182Z,74.37
2018-01-24T16:21:06.522Z,72.93
2018-01-24T16:23:35.965Z,74.13
2018-01-24T16:26:04.558Z,75.51
2018-01-24T16:28:32.935Z,73.80
2018-01-24T16:31:01.317Z,72.25
2018-01-24T16:33:29.666Z,71.04
2018-01-24T16:35:58.020Z,76.54
2018-01-24T16:38:27.018Z,75.04
2018-01-24T16:40:55.404Z,72.93
2018-01-24T16:43:23.761Z,75.42
2018-01-24T16:45:52.113Z,74.21
2018-01-24T16:48:20.459Z,76.67
2018-01-24T16:50:48.812Z,74.07
2018-01-24T16:53:17.196Z,74.23
2018-01-24T16:55:45.550Z,72.37
2018-01-24T16:58:13.920Z,71.79
2018-01-24T17:00:42.267Z,74.49
2018-01-24T17:03:10.654Z,73.84
2018-01-24T17:05:39.014Z,74.76
2018-01-24T17:08:07.380Z,70.75
2018-01-24T17:10:35.734Z,72.80
2018-01-24T17:13:04.074Z,73.16
2018-01-24T17:15:32.422Z,71.67
2018-01-24T17:18:00.788Z,72.33
2018-01-24T17:20:29.138Z,72.58
2018-01-24T17:22:57.480Z,66.61
2018-01-24T17:25:25.850Z,70.11
2018-01-24T17:27:54.203Z,72.18
2018-01-24T17:30:22.546Z,69.88
2018-01-24T17:32:50.906Z,71.04
2018-01-24T17:35:19.246Z,73.22
2018-01-24T17:37:47.588Z,69.96
2018-01-24T17:40:15.923Z,71.84
2018-01-24T17:42:44.302Z,72.46
2018-01-24T17:45:12.644Z,72.08
2018-01-24T17:47:40.996Z,71.73
2018-01-24T17:50:09.335Z,69.93
2018-01-24T17:52:37.693Z,71.77
2018-01-24T17:55:06.172Z,71.48
2018-01-24T17:57:34.519Z,70.61
2018-01-24T18:00:02.875Z,71.40
2018-01-24T18:02:31.227Z,71.96
2018-01-24T18:04:59.578Z,69.52
2018-01-24T18:07:28.279Z,70.19
2018-01-24T18:09:56.906Z,70.23
2018-01-24T18:12:25.254Z,69.55
2018-01-24T18:14:53.599Z,68.40
2018-01-24T18:17:21.958Z,69.60
2018-01-24T18:19:50.316Z,70.10
2018-01-24T18:22:18.880Z,69.00
2018-01-24T18:24:47.320Z,68.73
2018-01-24T18:27:15.664Z,69.97
2018-01-24T18:29:44.012Z,70.73
2018-01-24T18:32:12.395Z,70.32
2018-01-24T18:34:40.786Z,69.21
2018-01-24T18:37:09.146Z,67.98
2018-01-24T18:39:37.521Z,67.84
2018-01-24T18:42:05.874Z,68.28
2018-01-24T18:44:34.268Z,68.73
2018-01-24T18:47:02.611Z,68.45
2018-01-24T18:49:30.990Z,70.23
2018-01-24T18:51:59.327Z,68.90
2018-01-24T18:54:27.679Z,69.58
2018-01-24T18:56:56.018Z,68.68
2018-01-24T18:59:24.371Z,66.30
2018-01-24T19:01:52.714Z,66.17
2018-01-24T19:04:21.088Z,69.89
2018-01-24T19:06:49.443Z,67.87
2018-01-24T19:09:17.834Z,69.03
2018-01-24T19:11:46.207Z,69.85
2018-01-24T19:14:14.652Z,66.63
2018-01-24T19:16:42.998Z,66.72
2018-01-24T19:19:11.373Z,69.14
2018-01-24T19:21:39.723Z,68.17
2018-01-24T19:24:08.095Z,70.76
2018-01-24T19:26:36.472Z,70.66
2018-01-24T19:29:04.951Z,68.32
2018-01-24T19:31:33.297Z,68.57
2018-01-24T19:34:01.638Z,70.06
2018-01-24T19:36:30.027Z,68.79
2018-01-24T19:38:58.391Z,70.31
2018-01-24T19:41:26.740Z,68.88
2018-01-24T19:43:55.115Z,72.40
2018-01-24T19:46:23.505Z,70.86
2018-01-24T19:48:51.882Z,68.81
2018-01-24T19:51:20.277Z,68.97
2018-01-24T19:53:48.610Z,68.34
2018-01-24T19:56:16.967Z,67.50
2018-01-24T19:58:45.350Z,65.27
2018-01-24T20:01:13.700Z,66.30
2018-01-24T20:03:42.060Z,65.41
2018-01-24T20:06:10.426Z,69.03
2018-01-24T20:08:38.861Z,67.97
2018-01-24T20:11:07.232Z,67.15
2018-01-24T20:13:35.598Z,64.86
2018-01-24T20:16:21.246Z,65.82
2018-01-24T20:18:49.637Z,65.95
2018-01-24T20:21:18.001Z,68.04
2018-01-24T20:23:46.347Z,68.79
2018-01-24T20:26:14.725Z,64.56
2018-01-24T20:28:43.110Z,68.02
2018-01-24T20:31:11.773Z,64.72
2018-01-24T20:33:40.147Z,66.64
2018-01-24T20:36:08.511Z,64.08
2018-01-24T20:38:36.920Z,65.38
2018-01-24T20:41:05.282Z,66.72
2018-01-24T20:43:33.636Z,67.99
2018-01-24T20:46:02.015Z,67.19
2018-01-24T20:48:30.361Z,64.96
2018-01-24T20:50:58.700Z,67.53
2018-01-24T20:53:27.051Z,68.19
2018-01-24T20:55:55.426Z,65.89
2018-01-24T20:58:23.820Z,66.26
2018-01-24T21:00:52.195Z,66.61
2018-01-24T21:03:20.608Z,69.35
2018-01-24T21:05:49.079Z,67.48
2018-01-24T21:08:17.427Z,66.04
2018-01-24T21:10:45.767Z,66.71
2018-01-24T21:13:14.118Z,64.84
2018-01-24T21:15:42.476Z,68.19
2018-01-24T21:18:10.862Z,68.10
2018-01-24T21:20:39.206Z,68.89
2018-01-24T21:23:07.629Z,68.84
2018-01-24T21:25:41.364Z,66.37
2018-01-24T21:28:28.219Z,67.91
2018-01-24T21:31:08.186Z,68.48
2018-01-24T21:33:48.861Z,67.57
2018-01-24T21:36:32.361Z,65.59
2018-01-24T21:39:00.831Z,66.77
2018-01-24T21:41:29.190Z,66.17
2018-01-24T21:43:57.583Z,66.49
2018-01-24T21:46:25.942Z,67.98
2018-01-24T21:48:54.282Z,67.32
2018-01-24T21:51:22.640Z,66.03
2018-01-24T21:53:51.027Z,66.27
2018-01-24T21:56:19.430Z,66.84
2018-01-24T21:58:47.773Z,69.06
2018-01-24T22:01:16.122Z,69.04
2018-01-24T22:03:44.504Z,69.88
2018-01-24T22:06:12.891Z,68.23
2018-01-24T22:08:41.264Z,69.67
2018-01-24T22:11:09.612Z,67.53
2018-01-24T22:13:37.988Z,68.18
2018-01-24T22:16:06.367Z,68.70
2018-01-24T22:18:34.715Z,66.83
2018-01-24T22:21:03.062Z,70.68
2018-01-24T22:23:31.416Z,67.36
2018-01-24T22:25:59.794Z,70.43
2018-01-24T22:28:28.135Z,67.81
2018-01-24T22:30:56.487Z,70.45
2018-01-24T22:33:24.891Z,69.37
2018-01-24T22:35:53.218Z,69.29
2018-01-24T22:38:21.587Z,68.24
2018-01-24T22:40:49.959Z,68.29
2018-01-24T22:43:18.310Z,69.15
2018-01-24T22:45:46.691Z,66.79
2018-01-24T22:48:20.669Z,67.83
2018-01-24T22:50:49.052Z,65.90
2018-01-24T22:53:17.399Z,65.53
2018-01-24T22:55:45.999Z,68.21
2018-01-24T22:58:14.395Z,68.71
2018-01-24T23:00:42.752Z,67.04
2018-01-24T23:03:11.125Z,70.06
2018-01-24T23:05:39.501Z,69.21
2018-01-24T23:08:07.846Z,68.34
2018-01-24T23:10:36.182Z,68.58
2018-01-24T23:13:04.531Z,68.76
2018-01-24T23:15:32.889Z,70.37
2018-01-24T23:18:01.251Z,68.02
2018-01-24T23:20:29.602Z,67.27
2018-01-24T23:22:57.967Z,67.38
2018-01-24T23:25:26.312Z,68.03
2018-01-24T23:27:54.656Z,65.62
2018-01-24T23:30:22.998Z,68.05
2018-01-24T23:32:51.337Z,69.76
2018-01-24T23:35:19.692Z,68.74
2018-01-24T23:37:48.034Z,68.51
2018-01-24T23:40:16.379Z,68.97
2018-01-24T23:42:44.746Z,68.95
2018-01-24T23:45:13.096Z,70.13
2018-01-24T23:47:41.438Z,68.34
2018-01-24T23:50:09.783Z,67.39
2018-01-24T23:52:38.122Z,70.65
2018-01-24T23:55:06.463Z,70.54
2018-01-24T23:57:34.831Z,69.94
